Time;durP1;ratioP1;P1;durP2;ratioP2;P2;SDS_P1;SDS_P2;PMS_P1;PMS_P2;Temp;Humidity;BMP_temperature;BMP_pressure;BME280_temperature;BME280_humidity;BME280_pressure;Samples;Min_cycle;Max_cycle;Signal;HPM_P1;HPM_P2
2022/12/26 06:49:18;;;;;;;;;;;;;;;18.74;63.41;96263.94;21030567;27;19914;-54
2022/12/26 06:59:16;;;;;;;;;;;;;;;18.78;63.52;96259.53;21027384;28;20194;-48
2022/12/26 07:09:19;;;;;;;;;;;;;;;18.80;63.47;96278.19;21037774;28;19920;-48
2022/12/26 07:19:16;;;;;;;;;;;;;;;18.82;63.71;96268.66;21038337;28;19974;-52
2022/12/26 07:29:16;;;;;;;;;;;;;;;18.83;63.53;96281.09;21034336;28;19920;-52
2022/12/26 07:39:14;;;;;;;;;;;;;;;18.86;63.51;96288.63;21037046;28;19966;-49
2022/12/26 07:49:13;;;;;;;;;;;;;;;18.87;63.33;96275.88;21030395;28;20199;-45
2022/12/26 07:59:12;;;;;;;;;;;;;;;18.88;63.64;96301.84;20989232;28;19920;-49
2022/12/26 08:09:15;;;;;;;;;;;;;;;18.87;63.82;96292.13;20981798;28;19920;-48
2022/12/26 08:19:12;;;;;;;;;;;;;;;18.82;64.03;96293.00;20962009;28;19920;-46
2022/12/26 08:29:11;;;;;;;;;;;;;;;18.80;64.26;96322.28;20960872;28;20195;-47
2022/12/26 08:39:09;;;;;;;;;;;;;;;18.77;64.06;96311.22;20960902;28;20010;-50
2022/12/26 08:49:09;;;;;;;;;;;;;;;18.74;63.67;96330.75;20959042;28;19920;-49
2022/12/26 08:59:07;;;;;;;;;;;;;;;17.09;58.77;96402.44;20959505;28;20162;-49
2022/12/26 09:09:06;;;;;;;;;;;;;;;18.22;58.41;96397.38;20957338;28;19969;-48
2022/12/26 09:19:05;;;;;;;;;;;;;;;18.51;58.77;96402.72;20957619;28;19935;-50
2022/12/26 09:29:04;;;;;;;;;;;;;;;18.63;59.21;96397.69;20957070;28;20192;-50
2022/12/26 09:39:02;;;;;;;;;;;;;;;18.66;59.88;96434.16;20955779;28;19921;-48
2022/12/26 09:49:06;;;;;;;;;;;;;;;18.69;60.00;96452.50;20955317;28;20213;-48
2022/12/26 09:59:06;;;;;;;;;;;;;;;18.72;61.06;96468.97;20954310;28;19920;-45
2022/12/26 10:09:14;;;;;;;;;;;;;;;18.67;61.56;96474.44;20954152;28;19969;-47
2022/12/26 10:19:18;;;;;;;;;;;;;;;18.60;61.56;96489.41;20952526;28;19920;-50
2022/12/26 10:29:19;;;;;;;;;;;;;;;18.56;61.55;96497.28;20953287;28;19920;-51
2022/12/26 10:39:21;;;;;;;;;;;;;;;18.54;61.47;96483.25;20952947;28;19927;-51
2022/12/26 10:49:21;;;;;;;;;;;;;;;18.54;61.61;96491.38;20952640;28;19920;-45
2022/12/26 10:59:20;;;;;;;;;;;;;;;18.53;61.60;96492.44;20952683;28;19920;-46
2022/12/26 11:09:28;;;;;;;;;;;;;;;18.52;61.69;96479.22;20951657;28;19920;-47
2022/12/26 11:19:26;;;;;;;;;;;;;;;18.52;61.72;96458.41;20958387;28;20194;-47
2022/12/26 11:29:25;;;;;;;;;;;;;;;18.51;61.60;96470.31;20966483;28;19920;-47
2022/12/26 11:39:27;;;;;;;;;;;;;;;18.50;61.40;96482.19;20965990;28;19920;-46
2022/12/26 11:49:29;;;;;;;;;;;;;;;18.50;61.72;96443.56;20970365;28;20222;-51
2022/12/26 11:59:28;;;;;;;;;;;;;;;18.51;61.46;96420.81;20964874;28;20217;-47
2022/12/26 12:09:33;;;;;;;;;;;;;;;18.53;61.37;96454.59;20970694;28;20099;-50
2022/12/26 12:19:41;;;;;;;;;;;;;;;18.54;61.65;96474.31;20962766;28;19990;-51
2022/12/26 12:29:47;;;;;;;;;;;;;;;18.52;61.48;96444.06;20962425;28;19920;-48
2022/12/26 12:39:49;;;;;;;;;;;;;;;18.52;61.36;96438.66;20960316;28;19946;-52
2022/12/26 12:49:58;;;;;;;;;;;;;;;18.51;61.32;96443.28;20960644;28;20184;-50
2022/12/26 13:00:11;;;;;;;;;;;;;;;18.51;61.61;96437.06;20959983;28;20184;-48
2022/12/26 13:10:16;;;;;;;;;;;;;;;18.47;61.42;96445.72;20959594;28;19923;-51
2022/12/26 13:20:15;;;;;;;;;;;;;;;18.46;61.50;96438.72;20958764;28;19942;-46
2022/12/26 13:30:15;;;;;;;;;;;;;;;18.50;61.50;96419.25;20958849;28;19930;-47
2022/12/26 13:40:16;;;;;;;;;;;;;;;18.50;61.18;96430.84;20957539;28;19970;-50
2022/12/26 13:50:28;;;;;;;;;;;;;;;18.48;61.65;96412.19;20955442;28;19927;-50
2022/12/26 14:00:41;;;;;;;;;;;;;;;18.46;61.53;96418.97;20943084;28;19920;-47
2022/12/26 14:10:42;;;;;;;;;;;;;;;18.45;61.46;96425.47;20954031;28;19920;-47
2022/12/26 14:20:44;;;;;;;;;;;;;;;18.43;61.74;96419.56;20954637;28;19920;-48
2022/12/26 14:30:53;;;;;;;;;;;;;;;18.42;61.81;96399.00;20952985;28;19930;-48
2022/12/26 14:41:00;;;;;;;;;;;;;;;18.47;62.05;96415.16;20958418;28;19920;-47
2022/12/26 14:51:13;;;;;;;;;;;;;;;18.97;62.04;96386.66;20952005;28;19931;-50
2022/12/26 15:01:29;;;;;;;;;;;;;;;19.16;62.02;96389.38;20952195;28;19920;-48
2022/12/26 15:11:37;;;;;;;;;;;;;;;19.47;61.08;96358.03;20970965;28;19920;-49
2022/12/26 15:21:46;;;;;;;;;;;;;;;19.55;61.87;96379.00;20967570;28;19931;-46
2022/12/26 15:32:02;;;;;;;;;;;;;;;19.93;62.02;96415.72;20966824;28;20198;-50
2022/12/26 15:42:05;;;;;;;;;;;;;;;20.15;61.44;96400.69;20965922;28;19942;-47
2022/12/26 15:52:18;;;;;;;;;;;;;;;20.36;61.61;96401.94;20965171;28;19924;-50
2022/12/26 16:02:31;;;;;;;;;;;;;;;20.51;62.24;96380.72;20964418;28;19995;-51
2022/12/26 16:12:32;;;;;;;;;;;;;;;20.62;62.66;96401.09;20963149;28;20086;-50
2022/12/26 16:22:46;;;;;;;;;;;;;;;20.49;62.25;96396.47;20962366;28;20175;-50
2022/12/26 16:32:46;;;;;;;;;;;;;;;20.25;62.16;96403.19;20962240;28;19956;-53
2022/12/26 16:42:45;;;;;;;;;;;;;;;20.04;62.14;96430.69;20961199;28;19920;-52
2022/12/26 16:52:44;;;;;;;;;;;;;;;19.86;63.01;96436.97;20826721;28;19924;-51
2022/12/26 17:04:17;;;;;;;;;;;;;;;19.73;63.29;96410.66;20980049;22;19929;-49
2022/12/26 17:25:48;;;;;;;;;;;;;;;20.18;62.69;96446.19;20764248;28;20056;-59
2022/12/26 17:35:49;;;;;;;;;;;;;;;19.83;63.28;96447.59;20829718;28;19980;-75
2022/12/26 17:48:59;;;;;;;4.50;1.93;;;;;;;20.69;61.95;96505.72;3327447;27;21156;-55
2022/12/26 17:50:39;;;;;;;6.80;2.00;;;;;;;20.38;62.26;96491.91;3334751;28;20300;-52
2022/12/26 17:52:20;;;;;;;7.37;2.13;;;;;;;20.16;62.35;96506.09;3331845;28;20432;-55
2022/12/26 17:53:58;;;;;;;5.40;1.80;;;;;;;20.02;62.86;96500.66;3340424;28;20232;-55
2022/12/26 17:55:36;;;;;;;16.53;7.43;;;;;;;19.96;63.20;96509.97;3336350;28;20237;-52
2022/12/26 17:57:20;;;;;;;5.77;4.00;;;;;;;19.93;63.20;96510.56;3335001;28;20293;-57
2022/12/26 17:58:58;;;;;;;4.43;2.20;;;;;;;19.90;63.24;96508.47;3333968;28;20560;-57
2022/12/26 18:09:49;;;;;;;6.80;1.73;;;;;;;19.80;63.32;96527.59;20766207;27;132841;-50
2022/12/26 18:19:48;;;;;;;7.23;1.87;;;;;;;19.76;63.27;96548.22;20749088;28;20242;-56
2022/12/26 18:31:49;;;;;;;5.03;1.73;;;;;;;19.59;63.83;96571.53;21108027;27;20305;-62
2022/12/26 18:41:48;;;;;;;6.03;1.60;;;;;;;19.49;63.96;96558.91;21019418;27;92239;-61
2022/12/26 18:51:47;;;;;;;6.20;1.90;;;;;;;19.46;64.26;96597.41;21026432;28;20262;-59
2022/12/26 19:01:45;;;;;;;7.70;1.90;;;;;;;19.47;64.71;96593.63;21025057;28;20214;-65
2022/12/26 19:11:47;;;;;;;7.50;1.70;;;;;;;19.51;64.45;96583.81;21031074;28;20217;-55
2022/12/26 19:21:45;;;;;;;4.03;1.80;;;;;;;19.57;64.03;96600.81;21026808;28;20240;-58
2022/12/26 19:31:44;;;;;;;5.30;1.50;;;;;;;19.59;64.28;96610.25;21024844;28;20225;-58
2022/12/26 19:41:44;;;;;;;5.77;1.87;;;;;;;19.59;64.88;96631.09;20973394;28;20218;-58
2022/12/26 19:51:43;;;;;;;5.33;1.70;;;;;;;19.58;64.41;96673.63;20962188;28;20232;-57
2022/12/26 20:01:41;;;;;;;4.27;1.70;;;;;;;19.55;64.86;96687.75;20961076;28;20210;-58
2022/12/26 20:11:43;;;;;;;4.33;1.97;;;;;;;19.51;64.64;96714.63;20959937;28;20291;-57
2022/12/26 20:21:43;;;;;;;3.47;1.83;;;;;;;19.52;64.65;96723.53;20958981;28;20568;-56
2022/12/26 20:31:42;;;;;;;7.57;1.70;;;;;;;19.52;65.08;96748.72;20959893;28;20222;-54
2022/12/26 20:41:40;;;;;;;4.03;1.60;;;;;;;19.53;64.99;96765.78;20959352;28;20213;-55
2022/12/26 20:51:42;;;;;;;4.77;1.47;;;;;;;19.57;65.05;96787.72;20957958;28;20292;-55
2022/12/26 21:01:40;;;;;;;3.47;1.50;;;;;;;19.55;64.70;96812.34;20957955;28;20214;-55
2022/12/26 21:11:41;;;;;;;2.83;1.70;;;;;;;19.52;64.74;96848.13;20956883;28;20225;-55
2022/12/26 21:21:42;;;;;;;4.20;1.60;;;;;;;19.49;64.80;96876.59;20955447;28;20218;-55
2022/12/26 21:31:41;;;;;;;3.03;1.53;;;;;;;19.45;65.02;96882.84;20954514;28;20300;-55
2022/12/26 21:41:42;;;;;;;2.87;1.83;;;;;;;19.43;64.68;96891.28;20955259;28;20206;-63
2022/12/26 21:51:41;;;;;;;9.10;2.27;;;;;;;19.37;64.80;96900.50;20954458;28;20244;-55
